createdAt,value
2018-11-04T00:01:39.024Z,24.53
2018-11-04T00:03:42.779Z,22.23
2018-11-04T00:05:46.391Z,22.10
2018-11-04T00:07:50.906Z,22.30
2018-11-04T00:09:54.374Z,21.90
2018-11-04T00:11:58.036Z,21.57
2018-11-04T00:14:01.752Z,23.17
2018-11-04T00:16:05.356Z,22.00
2018-11-04T00:18:08.911Z,21.93
2018-11-04T00:20:13.645Z,21.30
2018-11-04T00:22:17.209Z,21.77
2018-11-04T00:24:20.757Z,22.87
2018-11-04T00:26:24.442Z,22.17
2018-11-04T00:28:27.952Z,21.87
2018-11-04T00:30:31.544Z,21.70
2018-11-04T00:32:35.111Z,23.17
2018-11-04T00:34:38.686Z,21.50
2018-11-04T00:36:42.215Z,21.87
2018-11-04T00:38:46.168Z,22.17
2018-11-04T00:40:49.729Z,22.47
2018-11-04T00:42:53.595Z,22.03
2018-11-04T00:44:57.278Z,22.10
2018-11-04T00:47:00.866Z,22.57
2018-11-04T00:49:04.764Z,21.43
2018-11-04T00:51:08.384Z,22.97
2018-11-04T00:53:11.913Z,22.97
2018-11-04T00:55:15.757Z,22.40
2018-11-04T00:57:19.298Z,23.73
2018-11-04T00:59:22.993Z,22.93
2018-11-04T01:01:26.561Z,23.77
2018-11-04T01:03:30.224Z,23.33
2018-11-04T01:05:33.800Z,23.13
2018-11-04T01:07:37.807Z,24.07
2018-11-04T01:09:41.455Z,24.27
2018-11-04T01:11:45.040Z,24.03
2018-11-04T01:13:48.768Z,24.13
2018-11-04T01:15:52.415Z,23.17
2018-11-04T01:17:55.935Z,24.53
2018-11-04T01:19:59.456Z,22.60
2018-11-04T01:22:03.277Z,24.60
2018-11-04T01:24:06.837Z,23.97
2018-11-04T01:26:10.395Z,22.83
2018-11-04T01:28:13.991Z,23.27
2018-11-04T01:30:17.913Z,24.03
2018-11-04T01:32:21.331Z,25.83
2018-11-04T01:34:25.060Z,26.77
2018-11-04T01:36:28.675Z,25.33
2018-11-04T01:38:32.452Z,24.43
2018-11-04T01:40:35.932Z,24.93
2018-11-04T01:42:40.069Z,24.13
2018-11-04T01:44:43.578Z,24.70
2018-11-04T01:46:47.239Z,25.37
2018-11-04T01:48:50.763Z,24.67
2018-11-04T01:50:54.275Z,24.93
2018-11-04T01:52:57.864Z,25.47
2018-11-04T01:55:01.537Z,24.33
2018-11-04T01:57:05.140Z,24.17
2018-11-04T01:59:08.814Z,25.20
2018-11-04T02:01:12.404Z,26.10
2018-11-04T02:03:15.944Z,24.87
2018-11-04T02:05:19.686Z,24.30
2018-11-04T02:07:23.328Z,26.80
2018-11-04T02:09:26.863Z,26.23
2018-11-04T02:11:30.368Z,25.63
2018-11-04T02:13:33.982Z,26.57
2018-11-04T02:15:37.583Z,25.53
2018-11-04T02:17:41.130Z,26.13
2018-11-04T02:19:44.650Z,24.83
2018-11-04T02:21:48.429Z,24.50
2018-11-04T02:23:51.939Z,25.30
2018-11-04T02:25:55.478Z,25.30
2018-11-04T02:27:59.005Z,25.30
2018-11-04T02:30:02.661Z,26.03
2018-11-04T02:32:06.552Z,26.07
2018-11-04T02:34:10.273Z,25.90
2018-11-04T02:36:13.812Z,25.37
2018-11-04T02:38:17.352Z,28.60
2018-11-04T02:40:21.161Z,28.20
2018-11-04T02:42:24.840Z,27.53
2018-11-04T02:44:28.400Z,26.73
2018-11-04T02:46:32.021Z,28.47
2018-11-04T02:48:35.952Z,28.57
2018-11-04T02:50:39.614Z,27.77
2018-11-04T02:52:43.233Z,30.67
2018-11-04T02:54:46.756Z,29.77
2018-11-04T02:56:50.315Z,28.90
2018-11-04T02:58:53.843Z,31.20
2018-11-04T03:00:57.474Z,31.67
2018-11-04T03:03:01.049Z,29.13
2018-11-04T03:05:05.339Z,29.23
2018-11-04T03:07:08.943Z,29.80
2018-11-04T03:09:12.687Z,29.90
2018-11-04T03:11:16.227Z,29.73
2018-11-04T03:13:19.827Z,29.57
2018-11-04T03:15:23.427Z,30.57
2018-11-04T03:17:26.965Z,30.60
2018-11-04T03:19:30.443Z,31.43
2018-11-04T03:21:34.048Z,31.30
2018-11-04T03:23:37.824Z,31.37
2018-11-04T03:25:41.460Z,29.40
2018-11-04T03:27:44.969Z,30.80
2018-11-04T03:29:48.590Z,32.37
2018-11-04T03:31:52.338Z,31.73
2018-11-04T03:33:55.907Z,31.17
2018-11-04T03:35:59.569Z,31.40
2018-11-04T03:38:03.082Z,31.37
2018-11-04T03:40:08.827Z,31.20
2018-11-04T03:42:12.427Z,31.07
2018-11-04T03:44:16.183Z,31.93
2018-11-04T03:46:19.897Z,30.13
2018-11-04T03:48:23.396Z,29.90
2018-11-04T03:50:26.945Z,28.37
2018-11-04T03:52:30.435Z,29.27
2018-11-04T03:54:34.168Z,30.07
2018-11-04T03:56:37.755Z,28.27
2018-11-04T03:58:41.330Z,28.30
2018-11-04T04:00:44.875Z,27.10
2018-11-04T04:02:48.428Z,27.53
2018-11-04T04:04:51.983Z,26.70
2018-11-04T04:06:55.655Z,25.97
2018-11-04T04:08:59.248Z,27.33
2018-11-04T04:11:02.791Z,26.67
2018-11-04T04:13:06.427Z,26.67
2018-11-04T04:15:11.015Z,27.57
2018-11-04T04:17:14.680Z,28.70
2018-11-04T04:19:18.200Z,27.33
2018-11-04T04:21:21.710Z,27.37
2018-11-04T04:23:25.250Z,28.23
2018-11-04T04:25:28.725Z,26.43
2018-11-04T04:27:32.425Z,28.97
2018-11-04T04:29:35.962Z,27.67
2018-11-04T04:31:39.486Z,28.80
2018-11-04T04:33:43.192Z,26.97
2018-11-04T04:35:49.767Z,26.40
2018-11-04T04:37:53.348Z,27.63
2018-11-04T04:39:56.943Z,26.60
2018-11-04T04:42:00.531Z,26.13
2018-11-04T04:44:04.156Z,26.60
2018-11-04T04:46:07.690Z,26.77
2018-11-04T04:48:11.523Z,27.30
2018-11-04T04:50:15.042Z,28.20
2018-11-04T04:52:18.697Z,27.47
2018-11-04T04:54:22.288Z,27.07
2018-11-04T04:56:26.005Z,28.53
2018-11-04T04:58:29.584Z,27.43
2018-11-04T05:00:33.502Z,25.67
2018-11-04T05:02:37.140Z,25.00
2018-11-04T05:04:40.712Z,27.87
2018-11-04T05:06:44.221Z,26.73
2018-11-04T05:08:48.025Z,26.63
2018-11-04T05:10:51.713Z,28.00
2018-11-04T05:12:55.278Z,27.73
2018-11-04T05:14:58.809Z,27.20
2018-11-04T05:17:02.466Z,27.30
2018-11-04T05:19:06.443Z,27.47
2018-11-04T05:21:10.096Z,26.70
2018-11-04T05:23:13.619Z,27.93
2018-11-04T05:25:17.159Z,26.83
2018-11-04T05:27:20.707Z,26.43
2018-11-04T05:29:24.415Z,26.33
2018-11-04T05:31:27.964Z,26.60
2018-11-04T05:33:31.487Z,26.10
2018-11-04T05:35:35.087Z,26.80
2018-11-04T05:37:38.716Z,26.37
2018-11-04T05:39:42.489Z,26.27
2018-11-04T05:41:46.144Z,25.47
2018-11-04T05:43:49.663Z,24.83
2018-11-04T05:45:53.378Z,26.57
2018-11-04T05:47:56.963Z,24.67
2018-11-04T05:50:00.522Z,24.73
2018-11-04T05:52:04.075Z,26.20
2018-11-04T05:54:07.736Z,25.40
2018-11-04T05:56:11.258Z,25.33
2018-11-04T05:58:14.768Z,26.13
2018-11-04T06:00:18.574Z,27.27
2018-11-04T06:02:22.117Z,27.13
2018-11-04T06:04:25.688Z,28.47
2018-11-04T06:06:29.356Z,27.83
2018-11-04T06:08:33.174Z,28.37
2018-11-04T06:10:36.823Z,28.93
2018-11-04T06:12:40.314Z,28.87
2018-11-04T06:14:43.955Z,28.47
2018-11-04T06:16:47.575Z,28.50
2018-11-04T06:18:51.177Z,28.10
2018-11-04T06:20:54.701Z,28.43
2018-11-04T06:22:58.231Z,27.77
2018-11-04T06:25:01.838Z,29.07
2018-11-04T06:27:05.787Z,28.40
2018-11-04T06:29:09.528Z,30.20
2018-11-04T06:31:13.090Z,28.50
2018-11-04T06:33:16.731Z,29.63
2018-11-04T06:35:20.682Z,28.60
2018-11-04T06:37:24.205Z,28.27
2018-11-04T06:39:27.715Z,29.53
2018-11-04T06:41:31.392Z,28.37
2018-11-04T06:43:34.928Z,28.23
2018-11-04T06:45:38.468Z,28.83
2018-11-04T06:47:42.261Z,26.97
2018-11-04T06:49:45.764Z,26.53
2018-11-04T06:51:49.504Z,27.17
2018-11-04T06:53:53.006Z,28.20
2018-11-04T06:55:56.588Z,25.30
2018-11-04T06:58:00.141Z,27.50
2018-11-04T07:00:04.150Z,26.27
2018-11-04T07:02:07.819Z,25.67
2018-11-04T07:04:26.176Z,26.00
2018-11-04T07:06:29.768Z,27.13
2018-11-04T07:08:33.417Z,25.83
2018-11-04T07:10:37.108Z,27.00
2018-11-04T07:12:40.624Z,25.90
2018-11-04T07:14:44.325Z,26.47
2018-11-04T07:16:47.931Z,25.50
2018-11-04T07:18:51.436Z,24.17
2018-11-04T07:20:54.956Z,26.03
2018-11-04T07:22:58.475Z,25.70
2018-11-04T07:25:01.986Z,24.33
2018-11-04T07:27:06.043Z,25.67
2018-11-04T07:29:10.134Z,25.70
2018-11-04T07:31:13.904Z,25.03
2018-11-04T07:33:17.654Z,26.77
2018-11-04T07:35:21.195Z,26.47
2018-11-04T07:37:24.741Z,25.47
2018-11-04T07:39:28.377Z,25.97
2018-11-04T07:41:31.924Z,26.57
2018-11-04T07:43:35.469Z,27.53
2018-11-04T07:45:39.007Z,26.43
2018-11-04T07:47:42.644Z,25.53
2018-11-04T07:49:46.260Z,25.33
2018-11-04T07:51:49.839Z,27.07
2018-11-04T07:53:53.423Z,26.40
2018-11-04T07:55:57.311Z,28.17
2018-11-04T07:58:00.796Z,27.87
2018-11-04T08:00:05.408Z,27.27
2018-11-04T08:02:09.040Z,26.07
2018-11-04T08:04:12.763Z,27.27
2018-11-04T08:06:16.267Z,27.17
2018-11-04T08:08:19.933Z,27.13
2018-11-04T08:10:23.645Z,25.63
2018-11-04T08:12:27.359Z,25.53
2018-11-04T08:14:30.950Z,26.77
2018-11-04T08:16:34.756Z,25.03
2018-11-04T08:18:38.321Z,25.33
2018-11-04T08:20:41.974Z,26.10
2018-11-04T08:22:45.482Z,25.23
2018-11-04T08:24:49.003Z,24.43
2018-11-04T08:26:52.569Z,26.17
2018-11-04T08:28:56.139Z,25.33
2018-11-04T08:30:59.675Z,26.83
2018-11-04T08:33:03.203Z,26.43
2018-11-04T08:35:06.808Z,26.73
2018-11-04T08:37:10.414Z,26.97
2018-11-04T08:39:14.152Z,27.93
2018-11-04T08:41:17.747Z,26.63
2018-11-04T08:43:21.544Z,26.17
2018-11-04T08:45:25.134Z,28.97
2018-11-04T08:47:28.716Z,28.00
2018-11-04T08:49:32.310Z,26.03
2018-11-04T08:51:35.939Z,26.60
2018-11-04T08:53:39.651Z,26.27
2018-11-04T08:55:43.217Z,23.83
2018-11-04T08:57:46.856Z,23.57
2018-11-04T08:59:50.497Z,23.13
2018-11-04T09:01:54.132Z,23.07
2018-11-04T09:03:57.651Z,23.37
2018-11-04T09:06:01.201Z,21.87
2018-11-04T09:08:04.867Z,25.67
2018-11-04T09:10:12.009Z,24.40
2018-11-04T09:12:15.519Z,26.20
2018-11-04T09:14:19.489Z,21.70
2018-11-04T09:16:23.027Z,21.20
2018-11-04T09:18:26.675Z,22.90
2018-11-04T09:20:30.311Z,22.17
2018-11-04T09:22:34.101Z,20.93
2018-11-04T09:24:37.615Z,20.90
2018-11-04T09:26:41.170Z,20.83
2018-11-04T09:28:44.885Z,19.33
2018-11-04T09:30:48.416Z,19.00
2018-11-04T09:32:52.021Z,20.03
2018-11-04T09:34:55.630Z,20.37
2018-11-04T09:36:59.091Z,19.70
2018-11-04T09:39:02.727Z,22.03
2018-11-04T09:41:06.254Z,22.13
2018-11-04T09:43:09.833Z,21.87
2018-11-04T09:45:13.402Z,21.57
2018-11-04T09:47:17.072Z,20.93
2018-11-04T09:49:20.637Z,21.10
2018-11-04T09:51:24.190Z,22.20
2018-11-04T09:53:27.695Z,21.97
2018-11-04T09:55:31.311Z,21.57
2018-11-04T09:57:34.903Z,22.47
2018-11-04T09:59:38.434Z,20.40
2018-11-04T10:01:42.190Z,20.57
2018-11-04T10:03:45.766Z,20.37
2018-11-04T10:05:49.439Z,19.97
2018-11-04T10:07:53.164Z,20.67
2018-11-04T10:09:56.718Z,18.33
2018-11-04T10:12:00.253Z,18.20
2018-11-04T10:14:04.057Z,16.63
2018-11-04T10:16:07.609Z,19.47
2018-11-04T10:18:11.326Z,18.97
2018-11-04T10:20:15.564Z,18.37
2018-11-04T10:22:18.690Z,18.90
2018-11-04T10:24:22.391Z,18.70
2018-11-04T10:26:25.940Z,18.27
2018-11-04T10:28:29.779Z,19.37
2018-11-04T10:30:33.319Z,19.67
2018-11-04T10:32:36.867Z,18.63
2018-11-04T10:34:40.443Z,19.03
2018-11-04T10:36:44.183Z,18.53
2018-11-04T10:38:47.791Z,18.50
2018-11-04T10:40:51.549Z,20.30
2018-11-04T10:42:55.091Z,20.07
2018-11-04T10:44:58.793Z,19.73
2018-11-04T10:47:02.322Z,20.50
2018-11-04T10:49:06.197Z,19.77
2018-11-04T10:51:09.784Z,20.77
2018-11-04T10:53:13.308Z,20.53
2018-11-04T10:55:16.918Z,21.00
2018-11-04T10:57:20.680Z,18.90
2018-11-04T10:59:24.294Z,20.60
2018-11-04T11:01:27.873Z,19.60
2018-11-04T11:03:31.496Z,19.10
2018-11-04T11:05:35.170Z,21.07
2018-11-04T11:07:38.801Z,19.67
2018-11-04T11:09:42.597Z,22.50
2018-11-04T11:11:46.166Z,20.40
2018-11-04T11:13:49.743Z,20.07
2018-11-04T11:15:53.336Z,19.23
2018-11-04T11:17:57.097Z,20.83
2018-11-04T11:20:00.672Z,21.00
2018-11-04T11:22:04.341Z,21.53
2018-11-04T11:24:07.915Z,22.07
2018-11-04T11:26:11.666Z,22.90
2018-11-04T11:28:15.212Z,21.17
2018-11-04T11:30:19.035Z,21.13
2018-11-04T11:32:22.559Z,21.87
2018-11-04T11:34:26.992Z,22.53
2018-11-04T11:36:30.636Z,21.93
2018-11-04T11:38:34.238Z,21.60
2018-11-04T11:40:37.796Z,20.67
2018-11-04T11:42:41.385Z,19.87
2018-11-04T11:44:45.064Z,21.23
2018-11-04T11:46:48.589Z,22.60
2018-11-04T11:48:52.175Z,23.43
2018-11-04T11:50:55.737Z,26.47
2018-11-04T11:52:59.345Z,25.97
2018-11-04T11:55:03.036Z,25.10
2018-11-04T11:57:06.958Z,22.33
2018-11-04T11:59:10.528Z,24.50
2018-11-04T12:01:14.027Z,22.40
2018-11-04T12:03:17.619Z,22.63
2018-11-04T12:05:22.190Z,22.90
2018-11-04T12:07:25.803Z,24.73
2018-11-04T12:09:29.360Z,23.33
2018-11-04T12:11:32.921Z,22.13
2018-11-04T12:13:36.547Z,22.43
2018-11-04T12:15:40.068Z,24.10
2018-11-04T12:17:43.802Z,24.63
2018-11-04T12:19:47.393Z,25.47
2018-11-04T12:21:50.899Z,24.50
2018-11-04T12:23:54.877Z,23.87
2018-11-04T12:25:58.256Z,21.20
2018-11-04T12:28:01.907Z,22.50
2018-11-04T12:30:07.421Z,22.37
2018-11-04T12:32:11.253Z,22.00
2018-11-04T12:34:14.813Z,21.03
2018-11-04T12:36:18.335Z,20.90
2018-11-04T12:38:22.014Z,23.73
2018-11-04T12:40:25.800Z,24.00
2018-11-04T12:42:29.521Z,21.10
2018-11-04T12:44:33.376Z,20.70
2018-11-04T12:46:37.021Z,20.23
2018-11-04T12:48:40.636Z,20.20
2018-11-04T12:50:44.259Z,19.53
2018-11-04T12:52:47.908Z,18.57
2018-11-04T12:54:51.472Z,19.33
2018-11-04T12:56:55.321Z,18.50
2018-11-04T12:58:59.117Z,20.50
2018-11-04T13:01:02.859Z,20.70
2018-11-04T13:03:06.626Z,20.77
2018-11-04T13:05:10.959Z,21.60
2018-11-04T13:07:14.464Z,20.63
2018-11-04T13:09:18.142Z,20.47
2018-11-04T13:11:21.785Z,19.97
2018-11-04T13:13:25.384Z,20.87
2018-11-04T13:15:28.956Z,18.20
2018-11-04T13:17:32.507Z,19.27
2018-11-04T13:19:36.170Z,17.70
2018-11-04T13:21:39.888Z,17.03
2018-11-04T13:23:43.490Z,17.80
2018-11-04T13:25:46.995Z,18.97
2018-11-04T13:27:50.891Z,18.33
2018-11-04T13:29:54.498Z,17.40
2018-11-04T13:31:58.071Z,16.77
2018-11-04T13:34:01.665Z,17.30
2018-11-04T13:36:05.864Z,17.40
2018-11-04T13:38:09.896Z,20.07
2018-11-04T13:40:13.584Z,17.33
2018-11-04T13:42:17.148Z,18.40
2018-11-04T13:44:20.847Z,18.07
2018-11-04T13:46:24.446Z,18.37
2018-11-04T13:48:27.992Z,16.90
2018-11-04T13:50:31.716Z,18.70
2018-11-04T13:52:35.299Z,19.33
2018-11-04T13:54:38.811Z,18.43
2018-11-04T13:56:42.417Z,16.67
2018-11-04T13:58:47.969Z,17.23
2018-11-04T14:00:53.783Z,17.23
2018-11-04T14:02:57.444Z,18.67
2018-11-04T14:05:00.959Z,17.93
2018-11-04T14:07:04.518Z,17.77
2018-11-04T14:09:09.075Z,18.63
2018-11-04T14:11:12.754Z,18.00
2018-11-04T14:13:16.452Z,17.30
2018-11-04T14:15:20.021Z,19.97
2018-11-04T14:17:23.751Z,18.50
2018-11-04T14:19:33.893Z,18.07
2018-11-04T14:21:37.458Z,18.57
2018-11-04T14:23:41.029Z,19.47
2018-11-04T14:25:44.821Z,18.13
2018-11-04T14:27:48.377Z,18.47
2018-11-04T14:29:51.927Z,19.50
2018-11-04T14:31:55.527Z,17.53
2018-11-04T14:33:59.054Z,18.97
2018-11-04T14:36:02.858Z,19.30
2018-11-04T14:38:06.492Z,21.87
2018-11-04T14:40:12.470Z,21.17
2018-11-04T14:42:16.016Z,20.90
2018-11-04T14:44:19.731Z,20.00
2018-11-04T14:46:23.325Z,22.50
2018-11-04T14:48:27.032Z,20.17
2018-11-04T14:50:30.802Z,20.17
2018-11-04T14:52:34.606Z,22.00
2018-11-04T14:54:38.163Z,28.13
2018-11-04T14:56:41.801Z,21.67
2018-11-04T14:58:45.361Z,19.00
2018-11-04T15:00:49.025Z,19.43
2018-11-04T15:02:52.473Z,19.30
2018-11-04T15:04:56.002Z,21.50
2018-11-04T15:06:59.695Z,21.83
2018-11-04T15:09:04.095Z,21.57
2018-11-04T15:11:07.697Z,21.07
2018-11-04T15:13:11.476Z,19.17
2018-11-04T15:15:16.569Z,24.33
2018-11-04T15:17:20.252Z,29.07
2018-11-04T15:19:23.830Z,26.80
2018-11-04T15:21:27.543Z,25.00
2018-11-04T15:23:31.103Z,25.43
2018-11-04T15:25:34.624Z,19.73
2018-11-04T15:27:38.399Z,23.87
2018-11-04T15:29:41.994Z,23.90
2018-11-04T15:31:45.672Z,24.53
2018-11-04T15:33:49.297Z,23.93
2018-11-04T15:35:52.984Z,27.70
2018-11-04T15:37:56.558Z,22.10
2018-11-04T15:40:00.175Z,32.57
2018-11-04T15:42:03.772Z,34.73
2018-11-04T15:44:07.667Z,30.90
2018-11-04T15:46:11.250Z,28.43
2018-11-04T15:48:14.812Z,24.33
2018-11-04T15:50:19.388Z,16.70
2018-11-04T15:52:23.075Z,17.47
2018-11-04T15:54:26.706Z,17.70
2018-11-04T15:56:30.328Z,19.00
2018-11-04T15:58:34.533Z,18.17
2018-11-04T16:00:38.082Z,18.00
2018-11-04T16:02:41.747Z,17.23
2018-11-04T16:04:45.315Z,19.60
2018-11-04T16:06:49.078Z,21.23
2018-11-04T16:08:52.796Z,19.07
2018-11-04T16:10:56.339Z,19.13
2018-11-04T16:12:59.884Z,19.47
2018-11-04T16:15:03.656Z,19.27
2018-11-04T16:17:07.167Z,19.73
2018-11-04T16:19:11.045Z,20.70
2018-11-04T16:21:14.612Z,24.07
2018-11-04T16:23:18.258Z,17.27
2018-11-04T16:25:21.827Z,18.13
2018-11-04T16:27:25.730Z,17.90
2018-11-04T16:29:29.319Z,19.37
2018-11-04T16:31:32.895Z,24.47
2018-11-04T16:33:36.631Z,18.60
2018-11-04T16:35:40.305Z,18.20
2018-11-04T16:37:44.754Z,20.87
2018-11-04T16:39:48.268Z,19.07
2018-11-04T16:41:51.823Z,31.37
2018-11-04T16:43:55.675Z,26.93
2018-11-04T16:45:59.353Z,35.33
2018-11-04T16:48:02.950Z,26.07
2018-11-04T16:50:07.434Z,19.97
2018-11-04T16:52:11.065Z,19.80
2018-11-04T16:54:14.655Z,17.87
2018-11-04T16:56:18.593Z,19.03
2018-11-04T16:58:22.046Z,17.83
2018-11-04T17:00:25.676Z,18.60
2018-11-04T17:02:29.278Z,19.13
2018-11-04T17:04:33.169Z,22.17
2018-11-04T17:06:36.734Z,21.40
2018-11-04T17:08:40.345Z,22.37
2018-11-04T17:10:44.390Z,21.13
2018-11-04T17:12:47.876Z,22.27
2018-11-04T17:14:51.425Z,23.27
2018-11-04T17:17:00.471Z,20.80
2018-11-04T17:19:04.381Z,27.57
2018-11-04T17:21:08.112Z,33.07
2018-11-04T17:23:11.834Z,26.03
2018-11-04T17:25:15.415Z,26.33
2018-11-04T17:27:18.948Z,26.57
2018-11-04T17:29:22.671Z,20.70
2018-11-04T17:31:26.267Z,26.10
2018-11-04T17:33:29.886Z,20.77
2018-11-04T17:35:33.471Z,18.67
2018-11-04T17:37:37.298Z,20.53
2018-11-04T17:39:40.818Z,19.83
2018-11-04T17:41:44.431Z,19.50
2018-11-04T17:43:47.991Z,21.33
2018-11-04T17:45:51.507Z,22.80
2018-11-04T17:47:55.105Z,21.53
2018-11-04T17:49:58.696Z,19.20
2018-11-04T17:52:02.210Z,22.27
2018-11-04T17:54:07.159Z,22.23
2018-11-04T17:56:10.599Z,19.57
2018-11-04T17:58:14.185Z,18.77
2018-11-04T18:00:18.173Z,19.17
2018-11-04T18:02:21.692Z,18.43
2018-11-04T18:04:25.429Z,16.90
2018-11-04T18:06:29.102Z,18.10
2018-11-04T18:08:33.251Z,16.83
2018-11-04T18:10:37.073Z,22.87
2018-11-04T18:12:40.869Z,17.43
2018-11-04T18:14:44.493Z,26.20
2018-11-04T18:16:48.281Z,36.87
2018-11-04T18:18:51.966Z,34.53
2018-11-04T18:20:55.583Z,27.63
2018-11-04T18:22:59.186Z,22.80
2018-11-04T18:25:03.446Z,34.13
2018-11-04T18:27:07.172Z,31.27
2018-11-04T18:29:10.728Z,31.27
2018-11-04T18:31:14.330Z,21.00
2018-11-04T18:33:18.134Z,22.00
2018-11-04T18:35:21.852Z,23.80
2018-11-04T18:37:25.385Z,22.77
2018-11-04T18:39:29.108Z,26.67
2018-11-04T18:41:32.665Z,33.27
2018-11-04T18:43:36.479Z,21.00
2018-11-04T18:45:40.508Z,33.23
2018-11-04T18:47:44.429Z,26.20
2018-11-04T18:49:48.219Z,22.80
2018-11-04T18:51:51.855Z,23.97
2018-11-04T18:53:55.437Z,19.60
2018-11-04T18:55:59.061Z,16.67
2018-11-04T18:58:02.731Z,17.33
2018-11-04T19:00:08.353Z,20.27
2018-11-04T19:02:11.903Z,20.33
2018-11-04T19:04:15.484Z,20.37
2018-11-04T19:06:19.115Z,18.57
2018-11-04T19:08:22.677Z,16.37
2018-11-04T19:10:26.302Z,16.00
2018-11-04T19:12:29.890Z,17.87
2018-11-04T19:14:33.429Z,17.17
2018-11-04T19:16:37.052Z,17.33
2018-11-04T19:18:40.799Z,18.30
2018-11-04T19:20:44.349Z,17.93
2018-11-04T19:22:47.959Z,17.43
2018-11-04T19:24:51.585Z,19.13
2018-11-04T19:26:55.185Z,17.47
2018-11-04T19:28:58.840Z,19.27
2018-11-04T19:31:02.396Z,20.10
2018-11-04T19:33:05.939Z,19.40
2018-11-04T19:35:10.854Z,19.70
2018-11-04T19:37:14.498Z,19.07
2018-11-04T19:39:18.166Z,19.07
2018-11-04T19:41:21.944Z,21.20
2018-11-04T19:43:25.529Z,20.60
2018-11-04T19:45:29.230Z,20.70
2018-11-04T19:47:32.800Z,18.30
2018-11-04T19:49:36.474Z,20.10
2018-11-04T19:51:40.124Z,17.20
2018-11-04T19:53:43.806Z,17.47
2018-11-04T19:55:47.363Z,19.07
2018-11-04T19:57:51.000Z,19.03
2018-11-04T19:59:54.695Z,19.23
2018-11-04T20:01:58.484Z,19.13
2018-11-04T20:04:02.140Z,19.90
2018-11-04T20:06:06.126Z,19.63
2018-11-04T20:08:09.848Z,19.37
2018-11-04T20:10:15.663Z,21.63
2018-11-04T20:12:24.580Z,22.23
2018-11-04T20:14:28.196Z,25.97
2018-11-04T20:16:31.962Z,25.73
2018-11-04T20:18:40.950Z,23.03
2018-11-04T20:20:44.599Z,23.03
2018-11-04T20:22:48.293Z,21.57
2018-11-04T20:24:57.363Z,23.80
2018-11-04T20:27:01.095Z,25.00
2018-11-04T20:29:05.012Z,22.30
2018-11-04T20:31:08.647Z,21.90
2018-11-04T20:33:13.723Z,25.77
2018-11-04T20:35:17.610Z,27.10
2018-11-04T20:37:21.230Z,27.13
2018-11-04T20:39:30.184Z,23.07
2018-11-04T20:41:34.255Z,25.03
2018-11-04T20:43:37.911Z,23.23
2018-11-04T20:45:41.503Z,25.00
2018-11-04T20:47:50.250Z,29.10
2018-11-04T20:49:59.049Z,32.23
2018-11-04T20:52:02.805Z,25.87
2018-11-04T20:54:07.009Z,24.70
2018-11-04T20:56:16.036Z,28.47
2018-11-04T20:58:19.860Z,32.03
2018-11-04T21:00:23.263Z,31.73
2018-11-04T21:02:26.986Z,22.40
2018-11-04T21:04:30.586Z,25.03
2018-11-04T21:06:34.134Z,21.77
2018-11-04T21:08:37.754Z,26.03
2018-11-04T21:10:41.574Z,26.37
2018-11-04T21:12:45.206Z,23.77
2018-11-04T21:14:48.776Z,23.53
2018-11-04T21:16:52.407Z,25.67
2018-11-04T21:18:56.043Z,26.47
2018-11-04T21:20:59.648Z,22.93
2018-11-04T21:23:03.362Z,24.73
2018-11-04T21:25:07.466Z,24.50
2018-11-04T21:27:11.006Z,24.23
2018-11-04T21:29:14.934Z,22.93
2018-11-04T21:31:18.395Z,24.57
2018-11-04T21:33:21.975Z,25.17
2018-11-04T21:35:25.609Z,23.60
2018-11-04T21:37:29.179Z,25.40
2018-11-04T21:39:32.840Z,22.00
2018-11-04T21:41:39.243Z,23.43
2018-11-04T21:43:43.128Z,21.50
2018-11-04T21:45:46.813Z,21.13
2018-11-04T21:47:50.379Z,21.67
2018-11-04T21:49:54.095Z,23.33
2018-11-04T21:51:57.707Z,21.63
2018-11-04T21:54:01.657Z,22.00
2018-11-04T21:56:05.637Z,22.20
2018-11-04T21:58:11.343Z,23.13
2018-11-04T22:00:16.113Z,22.63
2018-11-04T22:02:20.085Z,23.30
2018-11-04T22:04:23.608Z,23.73
2018-11-04T22:06:27.178Z,24.37
2018-11-04T22:08:30.859Z,24.90
2018-11-04T22:10:34.646Z,25.73
2018-11-04T22:12:38.406Z,23.23
2018-11-04T22:14:42.201Z,25.53
2018-11-04T22:16:45.863Z,24.33
2018-11-04T22:18:49.518Z,23.00
2018-11-04T22:20:53.311Z,24.93
2018-11-04T22:22:56.871Z,24.43
2018-11-04T22:25:00.530Z,23.70
2018-11-04T22:27:04.247Z,22.37
2018-11-04T22:29:07.880Z,23.90
2018-11-04T22:31:11.828Z,22.90
2018-11-04T22:33:15.409Z,22.80
2018-11-04T22:35:19.162Z,23.73
2018-11-04T22:37:22.800Z,24.43
2018-11-04T22:39:26.554Z,22.67
2018-11-04T22:41:30.078Z,23.17
2018-11-04T22:43:33.721Z,23.27
2018-11-04T22:45:37.293Z,23.50
2018-11-04T22:47:41.939Z,24.83
2018-11-04T22:49:45.556Z,27.53
2018-11-04T22:51:49.320Z,25.87
2018-11-04T22:53:52.880Z,31.27
2018-11-04T22:55:56.488Z,28.97
2018-11-04T22:58:06.070Z,30.07
2018-11-04T23:00:16.197Z,28.43
2018-11-04T23:02:20.349Z,25.57
2018-11-04T23:04:29.204Z,26.83
2018-11-04T23:06:32.862Z,28.03
2018-11-04T23:08:36.457Z,27.27
2018-11-04T23:10:40.297Z,26.20
2018-11-04T23:12:44.015Z,25.50
2018-11-04T23:14:47.606Z,24.83
2018-11-04T23:16:51.178Z,26.17
2018-11-04T23:18:54.759Z,24.77
2018-11-04T23:20:58.385Z,25.67
2018-11-04T23:23:02.139Z,25.17
2018-11-04T23:25:07.322Z,24.83
2018-11-04T23:27:11.001Z,25.60
2018-11-04T23:29:14.683Z,25.67
2018-11-04T23:31:18.260Z,26.80
2018-11-04T23:33:21.856Z,26.80
2018-11-04T23:35:25.504Z,27.77
2018-11-04T23:37:29.072Z,26.23
2018-11-04T23:39:32.637Z,24.13
2018-11-04T23:41:36.219Z,23.37
2018-11-04T23:43:39.927Z,23.70
2018-11-04T23:45:43.757Z,21.90
2018-11-04T23:47:47.382Z,22.53
2018-11-04T23:49:50.935Z,23.27
2018-11-04T23:51:54.544Z,21.40
2018-11-04T23:53:59.013Z,23.77
2018-11-04T23:56:02.676Z,25.03
2018-11-04T23:58:09.665Z,25.37
